Puntzi Mountain, Canada
Current Conditions -  °F | °C
As of 10:00 AM on Wednesday 26 Nov 2014 (Local Time) from CYWL Reporting Station
Light Snow Light Snow  
Wind Chill: 21°   Ceiling: 600
Heat Index: 28°   Visibility: 1mi
Dew Point: 28°   Wind: 7mph
Humidity: 100%   Direction: 40°NE
Pressure: 30.01"   Gusts: NA
Location:  52.12°N, 124.13°W
Report Text: CYWL 261800Z 04006KT 1SM -SN OVC006 M02/M02 A3001 RMK SN7SC1 /S04/ SLP206
Loading
Personal Weather Stations






























Interactive Weather Map New forecast layout! Learn more

10-Day Weather Forecast

Advertisements
Track Severe Weather on mobile